Esperantinopolis, Brazil
Current Conditions -  °F | °C
As of 9:00 AM on Sunday 23 Nov 2014 (Local Time) from SBTE Reporting Station
Few Clouds Few Clouds  
Wind Chill: 86°   Ceiling: Unl
Heat Index: 88°   Visibility: 6mi
Dew Point: 66°   Wind: 9mph
Humidity: 51%   Direction: 90°E
Pressure: 29.88"   Gusts: NA
Location:  4.87°S, 44.71°W
Report Text: SBTE 231200Z 09008KT 9999 FEW030 30/19 Q1012
Loading
Personal Weather Stations






























Interactive Weather Map New forecast layout! Learn more

10-Day Weather Forecast

Advertisements
Track Severe Weather on mobile